Kezdőlap
METAR-TAF:

METAR-TAF

Repülőterek :

Merrill Municipal Airport

Merrill, Wisconsin, Amerikai Egyesült Államok

földrajzi szélesség: 45-11N, földrajzi hosszúság: 089-42W, magasság: 401 m

Jelenlegi meteorológiai megfigyelések

A jelentés 18 perccel ezelõtt készült, 02:15 UTC
Kelet-északkeleti szél 3 kt
Hőmérséklet 10°C
Páratartalom 100%
Légköri nyomás 1009 hPa
Látótávolság: 8.0 km
Borult 600 lábon
enyhe szitálás

METAR: KRRL 260215Z AUTO 07003KT 5SM -DZ OVC006 10/10 A2980 RMK AO2 T01010101 TSNO

Idő: 21:33 (02:33 UTC)


TAF: hiányzik

Meteorológiai megfigyelések és előrejelzések több, mint 4000 repülőtéren (METAR és TAF jelentéseket).

A térképen piros és sárga pontok jelzik az elérhető meteorológiai állomásokat.

Mozgassa az egeret a pont fölött, hogy megjelenjen az állomás neve.

Azután kattintson az időjárási megfigyelések és előrejelzések megtekintéséhez.

A térkép megváltoztatása: kattintson a fekete keresztel jelölt zöld gombra ráközelítéshez, a vonallal jelölt zöld gombra távolításhoz, vagy a zöld nyilakra a szomszédos térképek eléréséhez.


METAR-TAF: